createdAt,value
2024-03-03T00:02:46.990Z,6.45
2024-03-03T00:06:15.562Z,5.82
2024-03-03T00:09:42.962Z,4.93
2024-03-03T00:16:36.719Z,5.63
2024-03-03T00:20:06.532Z,7.57
2024-03-03T00:23:34.757Z,5.10
2024-03-03T00:27:01.941Z,5.60
2024-03-03T00:30:28.621Z,6.85
2024-03-03T00:33:55.732Z,5.78
2024-03-03T00:37:23.275Z,6.80
2024-03-03T00:44:18.303Z,5.03
2024-03-03T00:47:45.633Z,6.88
2024-03-03T00:54:39.195Z,7.25
2024-03-03T00:58:08.639Z,5.28
2024-03-03T01:01:35.730Z,4.95
2024-03-03T01:05:02.597Z,6.13
2024-03-03T01:08:29.596Z,5.30
2024-03-03T01:11:56.814Z,6.70
2024-03-03T01:15:25.393Z,7.03
2024-03-03T01:18:52.297Z,6.45
2024-03-03T01:22:19.613Z,12.05
2024-03-03T01:25:47.568Z,7.40
2024-03-03T01:29:16.259Z,5.47
2024-03-03T01:32:44.737Z,6.97
2024-03-03T01:36:12.809Z,5.55
2024-03-03T01:39:39.895Z,5.80
2024-03-03T01:46:35.620Z,5.75
2024-03-03T01:50:04.040Z,6.50
2024-03-03T01:53:30.830Z,6.97
2024-03-03T01:56:57.900Z,7.75
2024-03-03T02:00:26.592Z,10.23
2024-03-03T02:03:54.060Z,8.48
2024-03-03T02:07:24.010Z,6.82
2024-03-03T02:10:51.013Z,7.15
2024-03-03T02:14:18.388Z,7.72
2024-03-03T02:17:45.370Z,6.07
2024-03-03T02:21:12.647Z,7.82
2024-03-03T02:24:40.881Z,8.20
2024-03-03T02:28:08.445Z,9.15
2024-03-03T02:31:37.498Z,8.05
2024-03-03T02:35:04.288Z,7.35
2024-03-03T02:38:31.571Z,7.78
2024-03-03T02:45:26.266Z,8.15
2024-03-03T02:48:53.373Z,7.97
2024-03-03T02:52:20.781Z,8.35
2024-03-03T02:59:15.640Z,8.85
2024-03-03T03:02:42.503Z,9.43
2024-03-03T03:06:10.145Z,8.57
2024-03-03T03:13:05.326Z,10.68
2024-03-03T03:16:33.822Z,14.23
2024-03-03T03:20:01.515Z,8.13
2024-03-03T03:23:28.367Z,9.85
2024-03-03T03:26:55.209Z,11.60
2024-03-03T03:30:22.123Z,9.68
2024-03-03T03:33:50.677Z,10.10
2024-03-03T03:37:17.695Z,8.02
2024-03-03T03:40:44.530Z,9.40
2024-03-03T03:44:11.768Z,10.38
2024-03-03T03:47:38.764Z,9.98
2024-03-03T03:51:08.496Z,9.73
2024-03-03T03:54:35.403Z,10.52
2024-03-03T03:58:02.217Z,12.90
2024-03-03T04:01:30.074Z,12.13
2024-03-03T04:04:57.179Z,9.98
2024-03-03T04:08:25.445Z,10.68
2024-03-03T04:11:52.547Z,10.77
2024-03-03T04:15:19.872Z,11.63
2024-03-03T04:18:48.026Z,10.75
2024-03-03T04:22:15.638Z,13.45
2024-03-03T04:25:43.952Z,14.38
2024-03-03T04:29:10.958Z,13.98
2024-03-03T04:32:42.585Z,11.63
2024-03-03T04:36:11.510Z,12.10
2024-03-03T04:39:38.740Z,11.80
2024-03-03T04:43:07.392Z,14.23
2024-03-03T04:46:34.509Z,12.70
2024-03-03T04:50:01.542Z,11.90
2024-03-03T04:53:28.603Z,12.82
2024-03-03T04:56:55.878Z,12.00
2024-03-03T05:00:24.200Z,11.93
2024-03-03T05:03:51.235Z,13.52
2024-03-03T05:07:18.720Z,14.15
2024-03-03T05:10:45.619Z,13.13
2024-03-03T05:14:12.571Z,13.18
2024-03-03T05:17:41.228Z,11.85
2024-03-03T05:21:08.834Z,13.18
2024-03-03T05:24:35.896Z,15.77
2024-03-03T05:28:04.608Z,12.38
2024-03-03T05:31:32.861Z,12.23
2024-03-03T05:35:01.547Z,14.05
2024-03-03T05:38:28.510Z,14.05
2024-03-03T05:41:55.402Z,13.73
2024-03-03T05:45:22.199Z,14.82
2024-03-03T05:48:49.139Z,13.00
2024-03-03T05:52:18.276Z,14.70
2024-03-03T05:55:45.205Z,12.55
2024-03-03T05:59:14.489Z,13.80
2024-03-03T06:02:42.158Z,17.63
2024-03-03T06:06:11.104Z,13.40
2024-03-03T06:09:42.422Z,14.07
2024-03-03T06:13:09.704Z,17.05
2024-03-03T06:20:07.077Z,12.27
2024-03-03T06:23:34.130Z,17.52
2024-03-03T06:27:02.524Z,16.75
2024-03-03T06:30:29.886Z,14.75
2024-03-03T06:37:23.834Z,15.57
2024-03-03T06:40:51.232Z,14.32
2024-03-03T06:47:46.670Z,13.75
2024-03-03T06:51:15.192Z,12.93
2024-03-03T06:54:42.269Z,15.50
2024-03-03T06:58:10.101Z,13.20
2024-03-03T07:01:38.616Z,16.27
2024-03-03T07:05:05.821Z,14.30
2024-03-03T07:08:32.744Z,15.68
2024-03-03T07:12:02.522Z,12.57
2024-03-03T07:15:29.915Z,15.25
2024-03-03T07:22:25.242Z,14.07
2024-03-03T07:25:52.236Z,15.48
2024-03-03T07:29:19.001Z,18.40
2024-03-03T07:32:46.008Z,21.95
2024-03-03T07:36:14.718Z,14.85
2024-03-03T07:39:41.834Z,17.42
2024-03-03T07:43:08.862Z,14.90
2024-03-03T07:46:36.869Z,16.00
2024-03-03T07:50:06.204Z,14.35
2024-03-03T07:53:34.649Z,16.77
2024-03-03T07:57:01.855Z,16.98
2024-03-03T08:00:34.761Z,15.27
2024-03-03T08:04:02.817Z,15.38
2024-03-03T08:07:29.989Z,13.82
2024-03-03T08:10:58.305Z,15.60
2024-03-03T08:14:25.373Z,18.58
2024-03-03T08:17:52.435Z,16.25
2024-03-03T08:21:19.298Z,16.77
2024-03-03T08:24:46.205Z,15.02
2024-03-03T08:28:14.508Z,15.23
2024-03-03T08:31:43.494Z,13.18
2024-03-03T08:35:11.085Z,16.27
2024-03-03T08:38:38.048Z,14.70
2024-03-03T08:42:05.616Z,13.85
2024-03-03T08:45:34.157Z,12.57
2024-03-03T08:49:01.850Z,15.70
2024-03-03T08:52:28.917Z,14.35
2024-03-03T08:55:55.900Z,13.38
2024-03-03T08:59:23.023Z,11.48
2024-03-03T09:02:51.441Z,15.70
2024-03-03T09:06:18.603Z,13.73
2024-03-03T09:09:49.144Z,13.88
2024-03-03T09:13:16.401Z,12.95
2024-03-03T09:16:43.853Z,13.00
2024-03-03T09:23:40.613Z,13.13
2024-03-03T09:27:07.675Z,12.75
2024-03-03T09:30:35.500Z,12.70
2024-03-03T09:34:02.478Z,10.38
2024-03-03T09:37:30.675Z,20.40
2024-03-03T09:40:57.826Z,9.98
2024-03-03T09:44:35.776Z,12.95
2024-03-03T09:48:04.509Z,13.13
2024-03-03T09:51:32.965Z,10.98
2024-03-03T09:55:00.781Z,10.45
2024-03-03T09:58:27.973Z,12.60
2024-03-03T10:01:57.416Z,13.73
2024-03-03T10:05:26.457Z,13.35
2024-03-03T10:09:01.160Z,14.75
2024-03-03T10:12:28.661Z,12.05
2024-03-03T10:15:56.321Z,13.68
2024-03-03T10:19:23.153Z,12.65
2024-03-03T10:22:51.728Z,13.00
2024-03-03T10:26:20.038Z,10.77
2024-03-03T10:30:08.334Z,14.65
2024-03-03T10:37:07.449Z,11.77
2024-03-03T10:40:36.142Z,15.02
2024-03-03T10:44:04.888Z,10.02
2024-03-03T10:47:33.766Z,8.80
2024-03-03T10:51:00.702Z,13.40
2024-03-03T10:54:28.215Z,13.85
2024-03-03T11:01:26.942Z,13.32
2024-03-03T11:04:56.683Z,10.38
2024-03-03T11:08:25.128Z,15.57
2024-03-03T11:12:01.763Z,10.30
2024-03-03T11:15:36.711Z,12.15
2024-03-03T11:19:06.296Z,9.85
2024-03-03T11:22:39.548Z,10.05
2024-03-03T11:26:11.937Z,11.48
2024-03-03T11:29:45.401Z,13.57
2024-03-03T11:33:13.720Z,10.98
2024-03-03T11:36:41.953Z,12.63
2024-03-03T11:40:20.577Z,7.85
2024-03-03T11:43:49.781Z,13.02
2024-03-03T11:47:48.734Z,9.52
2024-03-03T11:51:25.980Z,11.65
2024-03-03T11:55:00.876Z,12.70
2024-03-03T11:58:33.437Z,10.50
2024-03-03T12:02:14.248Z,16.65
2024-03-03T12:05:43.600Z,10.73
2024-03-03T12:09:12.875Z,11.18
2024-03-03T12:12:43.310Z,10.98
2024-03-03T12:16:12.322Z,9.50
2024-03-03T12:19:39.416Z,11.60
2024-03-03T12:23:07.912Z,7.05
2024-03-03T12:26:35.340Z,6.72
2024-03-03T12:30:10.795Z,10.48
2024-03-03T12:33:41.408Z,12.00
2024-03-03T12:37:09.469Z,8.93
2024-03-03T12:40:36.658Z,5.75
2024-03-03T12:44:04.124Z,6.22
2024-03-03T12:51:00.787Z,8.35
2024-03-03T12:54:28.166Z,11.07
2024-03-03T12:57:55.324Z,6.28
2024-03-03T13:01:23.454Z,11.98
2024-03-03T13:04:56.337Z,13.27
2024-03-03T13:08:24.841Z,7.00
2024-03-03T13:11:52.980Z,6.03
2024-03-03T13:15:22.623Z,5.00
2024-03-03T13:19:03.298Z,8.25
2024-03-03T13:22:32.300Z,4.72
2024-03-03T13:26:00.552Z,6.90
2024-03-03T13:29:27.619Z,5.43
2024-03-03T13:32:54.709Z,4.95
2024-03-03T13:36:21.716Z,4.25
2024-03-03T13:39:50.221Z,4.40
2024-03-03T13:43:17.353Z,5.60
2024-03-03T13:46:45.208Z,6.55
2024-03-03T13:50:13.644Z,5.32
2024-03-03T13:53:40.620Z,5.75
2024-03-03T13:57:10.752Z,7.50
2024-03-03T14:00:37.923Z,5.47
2024-03-03T14:04:08.761Z,5.40
2024-03-03T14:07:39.940Z,6.25
2024-03-03T14:11:10.609Z,4.35
2024-03-03T14:14:37.541Z,5.13
2024-03-03T14:18:06.331Z,6.10
2024-03-03T14:21:33.772Z,6.28
2024-03-03T14:25:03.109Z,5.80
2024-03-03T14:28:33.554Z,5.32
2024-03-03T14:32:00.630Z,3.92
2024-03-03T14:35:27.542Z,5.82
2024-03-03T14:38:54.806Z,4.95
2024-03-03T14:42:21.827Z,5.47
2024-03-03T14:45:50.490Z,4.88
2024-03-03T14:49:17.901Z,3.83
2024-03-03T14:56:11.548Z,4.13
2024-03-03T14:59:39.559Z,5.32
2024-03-03T15:03:08.285Z,7.43
2024-03-03T15:06:36.192Z,5.75
2024-03-03T15:10:03.221Z,4.95
2024-03-03T15:13:30.553Z,108.88
2024-03-03T15:17:00.618Z,5.90
2024-03-03T15:20:32.119Z,7.47
2024-03-03T15:23:59.417Z,9.05
2024-03-03T15:27:26.269Z,4.95
2024-03-03T15:30:53.392Z,4.53
2024-03-03T15:37:48.649Z,8.80
2024-03-03T15:41:15.480Z,7.75
2024-03-03T15:44:42.717Z,9.23
2024-03-03T15:48:10.471Z,7.07
2024-03-03T15:51:39.891Z,5.28
2024-03-03T15:55:08.951Z,7.60
2024-03-03T15:58:36.727Z,7.32
2024-03-03T16:02:05.634Z,6.28
2024-03-03T16:05:33.943Z,8.63
2024-03-03T16:09:03.755Z,8.32
2024-03-03T16:12:32.886Z,8.40
2024-03-03T16:16:00.964Z,7.10
2024-03-03T16:19:28.178Z,8.20
2024-03-03T16:22:55.130Z,5.90
2024-03-03T16:26:22.309Z,7.47
2024-03-03T16:29:50.535Z,9.57
2024-03-03T16:33:17.688Z,8.35
2024-03-03T16:40:11.987Z,7.82
2024-03-03T16:43:55.091Z,9.70
2024-03-03T16:47:21.971Z,9.18
2024-03-03T16:50:51.927Z,7.05
2024-03-03T16:54:22.923Z,11.70
2024-03-03T16:57:50.208Z,7.90
2024-03-03T17:01:19.258Z,10.45
2024-03-03T17:04:46.330Z,5.45
2024-03-03T17:08:13.651Z,8.80
2024-03-03T17:11:41.045Z,8.13
2024-03-03T17:18:37.284Z,7.80
2024-03-03T17:22:04.891Z,8.88
2024-03-03T17:25:32.887Z,5.90
2024-03-03T17:29:00.203Z,8.77
2024-03-03T17:32:27.394Z,6.57
2024-03-03T17:35:55.617Z,7.70
2024-03-03T17:39:22.530Z,8.98
2024-03-03T17:42:49.296Z,6.75
2024-03-03T17:46:16.092Z,6.28
2024-03-03T17:49:43.015Z,11.15
2024-03-03T17:53:11.439Z,10.00
2024-03-03T17:56:39.758Z,9.85
2024-03-03T18:00:07.276Z,8.85
2024-03-03T18:03:34.498Z,9.35
2024-03-03T18:07:01.402Z,9.25
2024-03-03T18:10:30.010Z,9.18
2024-03-03T18:13:59.030Z,12.15
2024-03-03T18:17:26.140Z,10.60
2024-03-03T18:20:53.095Z,9.93
2024-03-03T18:24:21.434Z,16.70
2024-03-03T18:27:50.442Z,6.63
2024-03-03T18:31:17.485Z,11.25
2024-03-03T18:34:44.497Z,9.50
2024-03-03T18:38:11.833Z,11.55
2024-03-03T18:41:39.069Z,7.63
2024-03-03T18:45:08.486Z,10.10
2024-03-03T18:48:35.506Z,9.43
2024-03-03T18:52:03.864Z,9.77
2024-03-03T18:55:31.322Z,14.27
2024-03-03T19:02:26.479Z,14.50
2024-03-03T19:05:53.509Z,18.10
2024-03-03T19:09:20.402Z,16.00
2024-03-03T19:12:47.458Z,21.73
2024-03-03T19:16:14.525Z,19.45
2024-03-03T19:19:42.815Z,25.27
2024-03-03T19:23:09.616Z,26.63
2024-03-03T19:26:36.751Z,24.70
2024-03-03T19:30:07.200Z,24.92
2024-03-03T19:33:34.467Z,25.13
2024-03-03T19:37:02.973Z,29.70
2024-03-03T19:40:30.661Z,29.35
2024-03-03T19:44:00.458Z,24.15
2024-03-03T19:47:27.292Z,26.38
2024-03-03T19:50:54.367Z,30.67
2024-03-03T19:54:22.809Z,26.00
2024-03-03T19:57:49.891Z,24.73
2024-03-03T20:01:17.642Z,29.23
2024-03-03T20:04:44.944Z,29.70
2024-03-03T20:08:12.502Z,27.15
2024-03-03T20:11:41.465Z,30.17
2024-03-03T20:15:11.810Z,27.52
2024-03-03T20:18:41.317Z,27.58
2024-03-03T20:22:08.849Z,28.65
2024-03-03T20:25:36.405Z,31.58
2024-03-03T20:29:05.252Z,34.40
2024-03-03T20:32:32.124Z,29.48
2024-03-03T20:35:59.562Z,38.83
2024-03-03T20:39:26.589Z,33.38
2024-03-03T20:42:53.416Z,35.40
2024-03-03T20:46:22.152Z,33.72
2024-03-03T20:49:49.022Z,36.65
2024-03-03T20:53:16.515Z,37.95
2024-03-03T20:56:44.147Z,40.10
2024-03-03T21:00:11.671Z,37.55
2024-03-03T21:03:40.496Z,38.47
2024-03-03T21:07:08.245Z,37.33
2024-03-03T21:10:35.177Z,43.00
2024-03-03T21:14:02.971Z,39.70
2024-03-03T21:17:31.546Z,38.85
2024-03-03T21:21:00.082Z,43.33
2024-03-03T21:24:26.969Z,42.53
2024-03-03T21:27:53.967Z,44.75
2024-03-03T21:31:20.917Z,48.53
2024-03-03T21:34:49.546Z,39.13
2024-03-03T21:38:17.860Z,46.15
2024-03-03T21:41:44.863Z,43.15
2024-03-03T21:45:14.448Z,42.33
2024-03-03T21:48:42.355Z,43.95
2024-03-03T21:52:10.321Z,45.42
2024-03-03T21:55:38.486Z,46.15
2024-03-03T21:59:05.366Z,52.22
2024-03-03T22:02:32.395Z,57.97
2024-03-03T22:05:59.393Z,47.90
2024-03-03T22:09:26.233Z,51.97
2024-03-03T22:12:54.940Z,52.35
2024-03-03T22:16:21.966Z,51.85
2024-03-03T22:19:48.914Z,52.83
2024-03-03T22:23:15.667Z,57.83
2024-03-03T22:26:43.399Z,57.33
2024-03-03T22:30:12.193Z,59.25
2024-03-03T22:33:39.203Z,68.03
2024-03-03T22:37:07.259Z,67.55
2024-03-03T22:40:34.079Z,63.33
2024-03-03T22:44:00.960Z,65.05
2024-03-03T22:47:29.714Z,62.08
2024-03-03T22:50:56.814Z,73.28
2024-03-03T22:54:23.496Z,69.05
2024-03-03T22:57:50.233Z,55.40
2024-03-03T23:01:17.418Z,60.00
2024-03-03T23:04:48.722Z,51.70
2024-03-03T23:08:17.600Z,64.20
2024-03-03T23:11:45.009Z,66.55
2024-03-03T23:18:39.852Z,57.83
2024-03-03T23:22:09.743Z,62.92
2024-03-03T23:25:36.877Z,75.05
2024-03-03T23:29:04.383Z,59.78
2024-03-03T23:32:32.105Z,65.07
2024-03-03T23:35:58.962Z,68.68
2024-03-03T23:39:29.516Z,60.08
2024-03-03T23:42:57.821Z,62.25
2024-03-03T23:46:25.264Z,65.65
2024-03-03T23:53:20.786Z,57.75
2024-03-03T23:56:49.262Z,51.70
